Time;durP1;ratioP1;P1;durP2;ratioP2;P2;SDS_P1;SDS_P2;PMS_P1;PMS_P2;Temp;Humidity;BMP_temperature;BMP_pressure;BME280_temperature;BME280_humidity;BME280_pressure;Samples;Min_cycle;Max_cycle;Signal;HPM_P1;HPM_P2
2022/01/05 00:01:36;;;;;;;2.38;1.13;;;4.00;99.90;;;2.24;100.00;99649.34;2567834;30;138149;-40
2022/01/05 00:04:04;;;;;;;7.78;1.80;;;4.00;99.90;;;2.26;100.00;99655.38;2567530;30;136686;-40
2022/01/05 00:06:32;;;;;;;4.38;1.70;;;4.00;99.90;;;2.27;100.00;99647.13;2565659;30;138161;-40
2022/01/05 00:08:59;;;;;;;6.95;2.10;;;4.00;99.90;;;2.25;100.00;99657.22;2569273;30;137702;-40
2022/01/05 00:11:27;;;;;;;4.03;1.50;;;4.10;99.90;;;2.29;100.00;99655.84;2567912;30;137122;-40
2022/01/05 00:13:56;;;;;;;5.35;1.55;;;4.10;99.90;;;2.29;100.00;99653.16;2567709;30;137534;-40
2022/01/05 00:16:24;;;;;;;7.68;1.90;;;4.10;99.90;;;2.26;100.00;99669.69;2566977;30;138486;-40
2022/01/05 00:18:51;;;;;;;5.63;1.60;;;4.10;99.90;;;2.32;100.00;99673.47;2567713;30;137728;-40
2022/01/05 00:21:19;;;;;;;6.13;1.80;;;4.00;99.90;;;2.35;100.00;99666.88;2569472;30;136577;-40
2022/01/05 00:23:46;;;;;;;4.32;1.38;;;4.10;99.90;;;2.35;100.00;99678.47;2567690;30;138192;-40
2022/01/05 00:26:14;;;;;;;8.15;1.55;;;4.10;99.90;;;2.34;100.00;99671.41;2567492;30;138345;-40
2022/01/05 00:28:42;;;;;;;8.60;1.98;;;4.10;99.90;;;2.29;100.00;99676.53;2568473;30;137373;-41
2022/01/05 00:31:09;;;;;;;11.13;1.50;;;4.10;99.90;;;2.27;100.00;99668.66;2568422;30;138359;-41
2022/01/05 00:33:37;;;;;;;6.75;1.40;;;4.10;99.90;;;2.27;100.00;99667.81;2568849;30;138364;-40
2022/01/05 00:36:05;;;;;;;7.13;1.98;;;4.00;99.90;;;2.27;100.00;99667.81;2567730;30;137750;-40
2022/01/05 00:38:34;;;;;;;7.10;1.40;;;4.00;99.90;;;2.32;100.00;99669.94;2565776;30;137857;-40
2022/01/05 00:41:02;;;;;;;9.18;1.80;;;4.10;99.90;;;2.31;100.00;99666.41;2567299;30;138075;-40
2022/01/05 00:43:30;;;;;;;6.45;1.30;;;4.10;99.90;;;2.29;100.00;99653.16;2565791;30;137353;-40
2022/01/05 00:45:58;;;;;;;7.97;1.40;;;4.10;99.90;;;2.28;100.00;99658.69;2567106;30;138162;-40
2022/01/05 00:48:29;;;;;;;4.72;1.27;;;4.10;99.90;;;2.21;100.00;99657.78;2568800;30;137446;-40
2022/01/05 00:51:02;;;;;;;6.18;1.23;;;4.00;99.90;;;2.17;100.00;99661.88;2566810;30;137368;-40
2022/01/05 00:53:30;;;;;;;8.93;1.50;;;4.00;99.90;;;2.14;100.00;99665.75;2568286;30;136833;-40
2022/01/05 00:55:58;;;;;;;8.52;1.40;;;3.90;99.90;;;2.13;100.00;99661.41;2568173;30;138961;-40
2022/01/05 00:58:26;;;;;;;5.25;1.30;;;3.90;99.90;;;2.15;100.00;99668.28;2567877;30;136790;-40
2022/01/05 01:00:53;;;;;;;4.95;1.40;;;3.90;99.90;;;2.10;100.00;99667.97;2566214;30;138613;-40
2022/01/05 01:03:28;;;;;;;4.32;1.35;;;3.90;99.90;;;2.04;100.00;99675.97;2568474;30;137710;-41
2022/01/05 01:06:00;;;;;;;6.82;1.70;;;3.80;99.90;;;2.02;100.00;99670.78;2568694;30;138127;-40
2022/01/05 01:08:28;;;;;;;5.45;1.50;;;3.90;99.90;;;2.07;100.00;99681.81;2568204;30;138315;-40
2022/01/05 01:10:56;;;;;;;6.70;1.73;;;3.80;99.90;;;2.09;100.00;99682.47;2568474;30;138095;-40
2022/01/05 01:13:24;;;;;;;3.83;1.48;;;3.80;99.90;;;2.08;100.00;99680.78;2568565;30;137437;-40
2022/01/05 01:15:52;;;;;;;6.35;1.65;;;3.90;99.90;;;2.04;100.00;99681.34;2567071;30;137020;-41
2022/01/05 01:18:22;;;;;;;5.43;1.50;;;3.80;99.90;;;2.07;100.00;99692.56;2568423;30;137320;-41
2022/01/05 01:20:50;;;;;;;10.40;2.20;;;3.90;99.90;;;2.07;100.00;99686.38;2568067;30;138208;-40
2022/01/05 01:23:21;;;;;;;;;;;3.80;99.90;;;2.08;100.00;99693.41;2566978;30;138501;-40
2022/01/05 01:25:51;;;;;;;7.65;1.58;;;3.80;99.90;;;2.05;100.00;99696.47;2565386;30;138154;-40
2022/01/05 01:28:20;;;;;;;5.20;1.95;;;3.80;99.90;;;1.99;100.00;99695.34;2567851;30;138410;-40
2022/01/05 01:30:49;;;;;;;4.95;2.00;;;3.80;99.90;;;1.92;100.00;99699.81;2567644;30;138321;-41
2022/01/05 01:33:20;;;;;;;9.70;1.98;;;3.70;99.90;;;1.96;100.00;99693.03;2567215;30;136949;-40
2022/01/05 01:35:48;;;;;;;8.27;2.10;;;3.80;99.90;;;1.90;100.00;99693.78;2568037;30;137241;-40
2022/01/05 01:38:15;;;;;;;;;;;3.70;99.90;;;1.88;100.00;99701.19;2567541;30;138108;-40
2022/01/05 01:40:43;;;;;;;8.52;1.80;;;3.70;99.90;;;1.84;100.00;99693.47;2567395;30;138366;-40
2022/01/05 01:43:11;;;;;;;8.20;2.40;;;3.70;99.90;;;1.86;100.00;99702.22;2567413;30;138148;-40
2022/01/05 01:45:41;;;;;;;8.75;2.00;;;3.60;99.90;;;1.81;100.00;99699.22;2568121;30;139348;-40
2022/01/05 01:48:08;;;;;;;4.70;1.85;;;3.60;99.90;;;1.77;100.00;99699.78;2567919;30;137615;-40
2022/01/05 01:50:36;;;;;;;7.72;2.10;;;3.60;99.90;;;1.78;100.00;99704.97;2567038;30;138488;-40
2022/01/05 01:53:06;;;;;;;10.27;2.85;;;3.60;99.90;;;1.74;100.00;99709.03;2568493;30;139152;-40
2022/01/05 01:55:37;;;;;;;5.95;2.08;;;3.60;99.90;;;1.69;100.00;99708.75;2565286;30;137319;-40
2022/01/05 01:58:07;;;;;;;6.43;2.20;;;3.50;99.90;;;1.72;100.00;99717.31;2567932;30;137347;-40
2022/01/05 02:00:35;;;;;;;5.95;2.30;;;3.50;99.90;;;1.70;100.00;99713.13;2569099;30;138207;-40
2022/01/05 02:03:03;;;;;;;9.02;2.88;;;3.50;99.90;;;1.69;100.00;99711.44;2568246;30;136781;-40
2022/01/05 02:05:31;;;;;;;9.90;2.88;;;3.50;99.90;;;1.68;100.00;99720.53;2568328;30;137719;-40
2022/01/05 02:07:59;;;;;;;7.22;3.17;;;3.50;99.90;;;1.66;100.00;99717.19;2568188;30;136838;-40
2022/01/05 02:10:29;;;;;;;10.82;3.17;;;3.50;99.90;;;1.66;100.00;99711.81;2567433;30;138603;-40
2022/01/05 02:12:57;;;;;;;7.13;3.55;;;3.50;99.90;;;1.62;100.00;99705.13;2568969;30;136627;-40
2022/01/05 02:15:25;;;;;;;11.73;3.83;;;3.40;99.90;;;1.49;100.00;99703.06;2568052;30;139374;-40
2022/01/05 02:20:32;;;;;;;11.18;4.30;;;3.40;99.90;;;1.46;100.00;99720.38;2568153;30;138261;-40
2022/01/05 02:23:00;;;;;;;11.18;4.15;;;3.30;99.90;;;1.36;100.00;99711.72;2567404;30;137887;-40
2022/01/05 02:25:28;;;;;;;11.85;4.22;;;3.20;99.90;;;1.35;100.00;99710.88;2568549;30;137087;-40
2022/01/05 02:27:56;;;;;;;;;;;3.20;99.90;;;1.34;100.00;99728.00;2567128;30;137493;-40
2022/01/05 02:30:28;;;;;;;9.13;4.43;;;3.20;99.90;;;1.27;100.00;99735.94;2566693;30;139221;-40
2022/01/05 02:32:55;;;;;;;12.85;4.10;;;3.10;99.90;;;1.26;100.00;99733.44;2569181;30;137326;-40
2022/01/05 02:35:25;;;;;;;7.05;3.88;;;3.10;99.90;;;1.18;100.00;99733.47;2567774;30;137106;-40
2022/01/05 02:37:54;;;;;;;11.10;4.47;;;3.10;99.90;;;1.15;100.00;99735.50;2567793;30;137361;-40
2022/01/05 02:40:24;;;;;;;11.00;5.20;;;3.00;99.90;;;1.08;100.00;99742.63;2568441;30;138016;-40
2022/01/05 02:42:57;;;;;;;11.90;4.85;;;3.00;99.90;;;1.09;100.00;99738.09;2566786;30;138559;-40
2022/01/05 02:45:25;;;;;;;8.20;4.13;;;3.00;99.90;;;1.02;100.00;99737.09;2566779;30;140065;-40
2022/01/05 02:47:53;;;;;;;9.88;4.32;;;2.90;99.90;;;1.05;100.00;99744.81;2568939;30;136779;-40
2022/01/05 02:50:21;;;;;;;12.07;4.57;;;2.90;99.90;;;0.93;100.00;99745.22;2568873;30;138178;-40
2022/01/05 02:52:48;;;;;;;;;;;2.80;99.90;;;0.97;100.00;99746.53;2567442;30;138040;-40
2022/01/05 02:55:16;;;;;;;11.55;4.35;;;2.80;99.90;;;0.96;100.00;99744.03;2567442;30;138237;-40
2022/01/05 02:57:43;;;;;;;9.18;4.07;;;2.80;99.90;;;0.98;100.00;99742.84;2568957;30;137473;-40
2022/01/05 03:00:16;;;;;;;16.23;4.88;;;2.80;99.90;;;0.95;100.00;99753.94;2567734;30;138259;-40
2022/01/05 03:02:44;;;;;;;12.57;4.30;;;2.80;99.90;;;0.90;100.00;99745.56;2567608;30;138685;-40
2022/01/05 03:05:12;;;;;;;10.02;4.10;;;2.80;99.90;;;0.89;100.00;99765.38;2568612;30;138053;-40
2022/01/05 03:07:40;;;;;;;9.57;3.80;;;2.80;99.90;;;0.82;100.00;99769.78;2567879;30;138348;-40
2022/01/05 03:10:11;;;;;;;8.70;3.58;;;2.70;99.90;;;0.76;100.00;99779.38;2568774;30;139124;-40
2022/01/05 03:12:41;;;;;;;11.63;4.20;;;2.70;99.90;;;0.77;100.00;99788.25;2568431;30;137504;-40
2022/01/05 03:15:10;;;;;;;8.60;3.42;;;2.60;99.90;;;0.74;100.00;99794.81;2568175;30;140097;-40
2022/01/05 03:17:39;;;;;;;9.10;3.45;;;2.60;99.90;;;0.74;100.00;99802.03;2566107;30;136719;-40
2022/01/05 03:20:09;;;;;;;7.90;3.78;;;2.60;99.90;;;0.74;100.00;99802.88;2568803;30;137416;-40
2022/01/05 03:22:38;;;;;;;11.75;3.38;;;2.60;99.90;;;0.73;100.00;99808.41;2567321;30;137462;-40
2022/01/05 03:25:08;;;;;;;9.57;3.42;;;2.60;99.90;;;0.70;100.00;99804.25;2565320;30;138919;-40
2022/01/05 03:27:35;;;;;;;9.20;3.40;;;2.60;99.90;;;0.66;100.00;99811.78;2567346;30;137448;-40
2022/01/05 03:36:27;;;;;;;9.90;2.40;;;2.50;99.90;;;0.61;100.00;99816.00;2564889;30;137035;-38
2022/01/05 03:38:54;;;;;;;7.05;2.63;;;2.50;99.90;;;0.54;100.00;99822.06;2568634;30;138134;-38
2022/01/05 03:41:21;;;;;;;8.35;3.13;;;2.50;99.90;;;0.57;100.00;99827.09;2568358;30;138308;-38
2022/01/05 03:43:49;;;;;;;10.55;2.80;;;2.40;99.90;;;0.52;100.00;99824.09;2566347;30;136987;-38
2022/01/05 03:46:16;;;;;;;7.90;2.72;;;2.40;99.90;;;0.50;100.00;99830.63;2568324;30;138295;-37
2022/01/05 03:48:44;;;;;;;8.10;2.15;;;2.40;99.90;;;0.47;100.00;99841.69;2568476;30;136905;-37
2022/01/05 03:51:11;;;;;;;13.52;2.70;;;2.40;99.90;;;0.44;100.00;99840.22;2568271;30;138180;-37
2022/01/05 03:53:39;;;;;;;8.52;2.42;;;2.30;99.90;;;0.45;100.00;99839.19;2568786;30;137608;-37
2022/01/05 03:56:06;;;;;;;10.65;2.45;;;2.40;99.90;;;0.39;100.00;99853.28;2567750;30;138165;-37
2022/01/05 03:58:34;;;;;;;5.30;2.33;;;2.30;99.90;;;0.33;100.00;99857.50;2567059;30;137791;-37
2022/01/05 04:01:01;;;;;;;5.78;2.00;;;2.30;99.90;;;0.30;100.00;99857.84;2568492;30;138197;-37
2022/01/05 04:03:30;;;;;;;7.55;2.20;;;2.20;99.90;;;0.24;100.00;99853.97;2566472;30;137063;-37
2022/01/05 04:05:58;;;;;;;9.15;2.15;;;2.20;99.90;;;0.24;100.00;99858.50;2568101;30;139102;-37
2022/01/05 04:08:25;;;;;;;7.07;2.17;;;2.20;99.90;;;0.18;100.00;99872.59;2568775;30;137360;-38
2022/01/05 04:10:53;;;;;;;6.97;1.70;;;2.10;99.90;;;0.18;100.00;99872.59;2567924;30;138392;-37
2022/01/05 04:13:21;;;;;;;8.30;2.03;;;2.10;99.90;;;0.25;100.00;99873.59;2567884;30;138204;-38
2022/01/05 04:15:48;;;;;;;10.25;2.25;;;2.10;99.90;;;0.29;100.00;99880.31;2567195;30;138230;-38
2022/01/05 04:18:16;;;;;;;9.07;1.88;;;2.10;99.90;;;0.25;100.00;99877.13;2567512;30;137535;-37
2022/01/05 04:20:43;;;;;;;10.13;1.90;;;2.10;99.90;;;0.16;100.00;99888.00;2568734;30;138367;-37
2022/01/05 04:23:11;;;;;;;15.32;2.33;;;2.10;99.90;;;0.18;100.00;99888.69;2566620;30;137176;-37
2022/01/05 04:25:38;;;;;;;5.88;2.13;;;2.10;99.90;;;0.17;100.00;99895.91;2567268;30;137473;-37
2022/01/05 04:28:06;;;;;;;7.50;1.88;;;2.10;99.90;;;0.11;100.00;99897.41;2565730;30;137314;-37
2022/01/05 04:30:33;;;;;;;5.30;1.58;;;2.00;99.90;;;0.05;100.00;99898.09;2567991;30;137426;-37
2022/01/05 04:33:01;;;;;;;9.05;1.52;;;2.00;99.90;;;0.10;100.00;99903.78;2569349;30;136721;-38
2022/01/05 04:35:49;;;;;;;9.48;1.70;;;2.00;99.90;;;0.10;100.00;99914.50;2567597;30;138334;-37
2022/01/05 04:38:16;;;;;;;7.72;1.65;;;2.00;99.90;;;0.18;100.00;99916.38;2569069;30;137416;-37
2022/01/05 04:40:44;;;;;;;8.43;1.80;;;2.00;99.90;;;0.23;100.00;99911.34;2568233;30;138194;-37
2022/01/05 04:43:12;;;;;;;8.93;1.85;;;2.00;99.90;;;0.20;100.00;99916.19;2567760;30;136806;-37
2022/01/05 04:45:40;;;;;;;7.35;1.80;;;2.10;99.90;;;0.22;100.00;99917.72;2566970;30;138219;-37
2022/01/05 04:48:07;;;;;;;5.60;1.58;;;2.10;99.90;;;0.21;100.00;99912.50;2568323;30;137251;-37
2022/01/05 04:50:35;;;;;;;8.05;2.17;;;2.10;99.90;;;0.26;100.00;99915.50;2567146;30;138304;-37
2022/01/05 04:53:02;;;;;;;8.52;2.53;;;2.10;99.90;;;0.30;100.00;99916.03;2567896;30;136683;-37
2022/01/05 04:55:31;;;;;;;10.85;2.55;;;2.10;99.90;;;0.27;100.00;99911.84;2566867;30;137338;-37
2022/01/05 04:57:58;;;;;;;8.88;2.30;;;2.20;99.90;;;0.24;100.00;99912.16;2567749;30;136767;-37
2022/01/05 05:00:26;;;;;;;11.50;2.53;;;2.10;99.90;;;0.27;100.00;99911.84;2567963;30;137397;-37
2022/01/05 05:02:53;;;;;;;7.63;2.05;;;2.10;99.90;;;0.24;100.00;99914.84;2568737;30;137429;-37
2022/01/05 05:05:21;;;;;;;11.18;2.60;;;2.10;99.90;;;0.17;100.00;99913.84;2567214;30;137569;-37
2022/01/05 05:07:48;;;;;;;9.57;2.50;;;2.10;99.90;;;0.20;100.00;99918.88;2568173;30;136825;-38
2022/01/05 05:10:16;;;;;;;10.98;2.15;;;2.10;99.90;;;0.20;100.00;99916.19;2568775;30;138151;-37
2022/01/05 05:12:44;;;;;;;7.35;2.00;;;2.10;99.90;;;0.10;100.00;99925.25;2569198;30;136951;-37
2022/01/05 05:15:11;;;;;;;9.48;2.33;;;2.00;99.90;;;0.02;100.00;99924.38;2566475;30;137406;-37
2022/01/05 05:17:39;;;;;;;7.57;2.03;;;2.00;99.90;;;0.11;100.00;99926.06;2568792;30;137331;-37
2022/01/05 05:20:07;;;;;;;8.18;3.20;;;2.00;99.90;;;0.05;100.00;99929.41;2568222;30;139047;-37
2022/01/05 05:22:35;;;;;;;6.88;1.92;;;2.00;99.90;;;0.14;100.00;99925.75;2567186;30;137191;-37
2022/01/05 05:25:06;;;;;;;6.43;2.22;;;2.00;99.90;;;0.13;100.00;99930.28;2567477;30;137419;-37
2022/01/05 05:27:34;;;;;;;8.02;2.10;;;2.00;99.90;;;0.19;100.00;99920.72;2566002;30;136745;-37
2022/01/05 05:30:03;;;;;;;12.85;2.47;;;2.00;99.90;;;0.17;100.00;99925.41;2567491;30;137402;-37
2022/01/05 05:32:31;;;;;;;10.05;2.30;;;2.00;99.90;;;0.18;100.00;99924.41;2568556;30;137431;-37
2022/01/05 05:34:58;;;;;;;10.10;2.13;;;2.10;99.90;;;0.18;100.00;99928.94;2566910;30;138184;-37
2022/01/05 05:37:25;;;;;;;8.98;1.90;;;2.00;99.90;;;0.23;100.00;99926.56;2567113;30;137443;-37
2022/01/05 05:39:53;;;;;;;7.25;2.20;;;2.10;99.90;;;0.31;100.00;99931.13;2568856;30;138306;-37
2022/01/05 05:42:21;;;;;;;8.32;2.47;;;2.10;99.90;;;0.36;100.00;99926.06;2567830;30;138022;-37
2022/01/05 05:44:51;;;;;;;12.30;2.55;;;2.20;99.90;;;0.32;100.00;99933.66;2566128;30;138335;-37
2022/01/05 05:47:19;;;;;;;11.80;2.35;;;2.20;99.90;;;0.35;100.00;99936.00;2566330;30;136952;-37
2022/01/05 05:49:48;;;;;;;9.45;1.90;;;2.20;99.90;;;0.32;100.00;99935.47;2567390;30;137118;-37
2022/01/05 05:52:16;;;;;;;7.82;2.20;;;2.20;99.90;;;0.35;100.00;99941.34;2567604;30;137644;-37
2022/01/05 05:54:44;;;;;;;8.18;2.03;;;2.20;99.90;;;0.44;100.00;99939.53;2568118;30;138211;-37
2022/01/05 05:57:31;;;;;;;9.77;2.00;;;2.20;99.90;;;0.43;100.00;99944.03;2567518;30;136721;-37
2022/01/05 05:59:59;;;;;;;7.68;1.92;;;2.30;99.90;;;0.53;100.00;99941.19;2566520;30;138197;-37
2022/01/05 06:02:27;;;;;;;6.85;2.85;;;2.30;99.90;;;0.51;100.00;99943.19;2567630;30;136976;-37
2022/01/05 06:04:54;;;;;;;;;;;2.40;99.90;;;0.50;100.00;99944.22;2565227;30;137268;-37
2022/01/05 06:07:22;;;;;;;5.20;1.75;;;2.30;99.90;;;0.45;100.00;99941.19;2567934;30;137808;-37
2022/01/05 06:09:49;;;;;;;12.38;2.20;;;2.30;99.90;;;0.43;100.00;99946.72;2567065;30;138883;-37
2022/01/05 06:12:17;;;;;;;9.35;2.22;;;2.30;99.90;;;0.49;100.00;99944.38;2567489;30;137424;-37
2022/01/05 06:14:45;;;;;;;8.55;1.75;;;2.30;99.90;;;0.48;100.00;99951.59;2568642;30;138327;-37
2022/01/05 06:17:13;;;;;;;11.23;2.38;;;2.30;99.90;;;0.49;100.00;99947.91;2567213;30;137389;-37
2022/01/05 06:19:40;;;;;;;7.40;2.45;;;2.30;99.90;;;0.54;100.00;99950.09;2566568;30;138662;-37
2022/01/05 06:22:08;;;;;;;11.02;2.22;;;2.40;99.90;;;0.57;100.00;99952.44;2567206;30;138399;-37
2022/01/05 06:24:35;;;;;;;8.02;1.92;;;2.40;99.90;;;0.60;100.00;99948.56;2564316;30;139032;-37
2022/01/05 06:27:03;;;;;;;;;;;2.40;99.90;;;0.63;100.00;99951.75;2568875;30;136811;-37
2022/01/05 06:29:31;;;;;;;10.45;2.58;;;2.40;99.90;;;0.64;100.00;99964.16;2568110;30;137425;-37
2022/01/05 06:31:58;;;;;;;9.77;2.22;;;2.50;99.90;;;0.68;100.00;99957.44;2567950;30;137356;-37
2022/01/05 06:34:26;;;;;;;9.02;1.90;;;2.50;99.90;;;0.68;100.00;99967.38;2566991;30;138830;-38
2022/01/05 06:36:54;;;;;;;7.40;1.77;;;2.50;99.90;;;0.66;100.00;99967.53;2567760;30;137524;-37
2022/01/05 06:39:21;;;;;;;9.95;2.20;;;2.50;99.90;;;0.67;100.00;99973.75;2565312;30;137411;-37
2022/01/05 06:41:49;;;;;;;6.25;2.25;;;2.50;99.90;;;0.65;100.00;99979.28;2568489;30;137595;-37
2022/01/05 06:44:16;;;;;;;7.90;1.63;;;2.50;99.90;;;0.68;100.00;99978.94;2565549;30;138161;-36
2022/01/05 06:46:44;;;;;;;12.70;2.35;;;2.50;99.90;;;0.77;100.00;99981.59;2567959;30;136730;-37
2022/01/05 06:49:11;;;;;;;11.18;2.10;;;2.60;99.90;;;0.74;100.00;99979.25;2567997;30;137075;-37
2022/01/05 06:51:39;;;;;;;10.35;1.92;;;2.60;99.90;;;0.80;100.00;99974.06;2567686;30;137508;-38
2022/01/05 06:54:06;;;;;;;10.57;2.33;;;2.60;99.90;;;0.84;100.00;99985.31;2568124;30;139030;-37
2022/01/05 06:56:34;;;;;;;7.75;2.03;;;2.60;99.90;;;0.86;100.00;99985.97;2566564;30;137823;-37
2022/01/05 06:59:02;;;;;;;9.30;1.98;;;2.60;99.90;;;0.82;100.00;99987.31;2568907;30;137471;-37
2022/01/05 07:01:29;;;;;;;;;;;2.70;99.90;;;0.88;100.00;99986.66;2568233;30;137394;-37
2022/01/05 07:03:59;;;;;;;11.48;2.92;;;2.70;99.90;;;0.91;100.00;99988.13;2568442;30;138225;-37
2022/01/05 07:06:27;;;;;;;10.65;1.85;;;2.70;99.90;;;0.91;100.00;100006.94;2567763;30;138147;-37
2022/01/05 07:08:54;;;;;;;10.98;2.55;;;2.70;99.90;;;0.89;100.00;100004.44;2568342;30;137991;-37
2022/01/05 07:11:22;;;;;;;13.70;2.28;;;2.70;99.90;;;0.90;100.00;99995.38;2568260;30;136888;-38
2022/01/05 07:13:49;;;;;;;10.20;2.10;;;2.70;99.90;;;0.86;100.00;99992.16;2567306;30;138456;-37
2022/01/05 07:16:17;;;;;;;12.00;2.17;;;2.70;99.90;;;0.82;100.00;100004.25;2565861;30;137615;-37
2022/01/05 07:18:44;;;;;;;13.00;2.25;;;2.70;99.90;;;0.83;100.00;100002.44;2569346;30;138278;-37
2022/01/05 07:21:12;;;;;;;11.25;2.28;;;2.70;99.90;;;0.81;100.00;100007.97;2566320;30;137698;-37
2022/01/05 07:23:39;;;;;;;13.07;2.28;;;2.70;99.90;;;0.80;100.00;100018.88;2568737;30;138207;-37
2022/01/05 07:26:07;;;;;;;14.82;2.03;;;2.60;99.90;;;0.86;100.00;100015.53;2569117;30;138389;-37
2022/01/05 07:28:35;;;;;;;13.98;2.50;;;2.70;99.90;;;0.83;100.00;100007.81;2568158;30;137893;-37
2022/01/05 07:31:02;;;;;;;13.85;2.28;;;2.70;99.90;;;0.88;100.00;100013.50;2568327;30;138514;-37
2022/01/05 07:33:30;;;;;;;9.57;1.95;;;2.70;99.90;;;0.92;100.00;100014.84;2565880;30;138557;-37
2022/01/05 07:35:58;;;;;;;13.00;2.75;;;2.70;99.90;;;0.93;100.00;100021.88;2568529;30;137622;-38
2022/01/05 07:38:27;;;;;;;10.07;2.40;;;2.70;99.90;;;0.99;100.00;100020.38;2567662;30;139031;-37
2022/01/05 07:40:55;;;;;;;11.98;2.25;;;2.80;99.90;;;0.97;100.00;100020.53;2567418;30;137673;-37
2022/01/05 07:43:23;;;;;;;11.88;2.10;;;2.80;99.90;;;0.99;100.00;100010.47;2568265;30;138256;-37
2022/01/05 07:45:50;;;;;;;10.07;2.15;;;2.80;99.90;;;0.99;100.00;100010.47;2567040;30;137020;-37
2022/01/05 07:48:18;;;;;;;12.30;2.40;;;2.80;99.90;;;0.99;100.00;100015.00;2567310;30;138927;-38
2022/01/05 07:50:46;;;;;;;10.68;1.88;;;2.80;99.90;;;0.95;100.00;100011.81;2566750;30;137473;-37
2022/01/05 07:53:13;;;;;;;9.38;2.10;;;2.80;99.90;;;0.96;100.00;100029.59;2568458;30;138412;-37
2022/01/05 07:55:41;;;;;;;9.52;2.00;;;2.80;99.90;;;1.00;100.00;100046.22;2565454;30;136970;-37
2022/01/05 07:58:08;;;;;;;13.30;2.47;;;2.80;99.90;;;1.05;100.00;100048.41;2568295;30;138322;-38
2022/01/05 08:00:36;;;;;;;12.15;2.60;;;2.90;99.90;;;1.05;100.00;100049.25;2565973;30;138315;-37
2022/01/05 08:03:04;;;;;;;;;;;2.90;99.90;;;1.09;100.00;100047.06;2568215;30;138268;-37
2022/01/05 08:05:31;;;;;;;8.90;1.75;;;2.90;99.90;;;1.11;100.00;100048.56;2567568;30;136711;-37
2022/01/05 08:07:59;;;;;;;6.88;2.55;;;2.90;99.90;;;1.12;100.00;100044.88;2568744;30;138269;-37
2022/01/05 08:10:27;;;;;;;15.77;2.63;;;2.90;99.90;;;1.08;100.00;100032.78;2569492;30;137655;-37
2022/01/05 08:12:54;;;;;;;10.98;2.25;;;2.90;99.90;;;1.16;100.00;100042.69;2567926;30;137232;-37
2022/01/05 08:15:22;;;;;;;14.23;2.33;;;3.00;99.90;;;1.16;100.00;100048.06;2567414;30;139031;-37
2022/01/05 08:17:49;;;;;;;9.98;2.97;;;3.00;99.90;;;1.21;100.00;100053.75;2568378;30;139164;-37
2022/01/05 08:20:17;;;;;;;7.78;2.55;;;3.00;99.90;;;1.22;100.00;100051.94;2565451;30;137598;-37
2022/01/05 08:22:46;;;;;;;11.88;2.13;;;3.00;99.90;;;1.23;100.00;100058.97;2567719;30;138974;-37
2022/01/05 08:25:17;;;;;;;15.75;2.95;;;3.00;99.90;;;1.23;100.00;100067.88;2567949;30;137076;-37
2022/01/05 08:27:48;;;;;;;6.93;2.20;;;3.00;99.90;;;1.24;100.00;100072.22;2568660;30;138436;-37
2022/01/05 08:30:26;;;;;;;11.13;2.42;;;3.00;99.90;;;1.36;100.00;100083.47;2567491;30;137357;-37
2022/01/05 08:32:54;;;;;;;6.90;2.30;;;3.10;99.90;;;1.39;100.00;100085.81;2567679;30;137564;-37
2022/01/05 08:35:23;;;;;;;13.80;2.42;;;3.10;99.90;;;1.43;100.00;100081.78;2567434;30;136688;-37
2022/01/05 08:37:51;;;;;;;13.38;2.40;;;3.20;99.90;;;1.45;100.00;100084.31;2568938;30;138259;-37
2022/01/05 08:40:24;;;;;;;15.55;2.78;;;3.20;99.90;;;1.48;100.00;100086.66;2568440;30;137584;-37
2022/01/05 08:42:54;;;;;;;14.77;2.58;;;3.30;99.90;;;1.51;100.00;100080.09;2568344;30;137294;-37
2022/01/05 08:45:23;;;;;;;8.65;2.40;;;3.30;99.90;;;1.47;100.00;100084.97;2567341;30;137686;-37
2022/01/05 08:47:54;;;;;;;11.23;2.53;;;3.30;99.90;;;1.49;100.00;100085.63;2567967;30;138277;-37
2022/01/05 08:50:27;;;;;;;10.15;2.90;;;3.30;99.90;;;1.54;100.00;100085.13;2566967;30;137522;-37
2022/01/05 08:52:57;;;;;;;12.07;2.40;;;3.30;99.90;;;1.55;100.00;100092.19;2568377;30;137375;-37
2022/01/05 08:55:30;;;;;;;12.63;2.42;;;3.30;99.90;;;1.60;100.00;100094.38;2567735;30;136931;-37
2022/01/05 08:57:58;;;;;;;11.18;2.72;;;3.40;99.90;;;1.57;100.00;100082.91;2568139;30;138069;-37
2022/01/05 09:00:27;;;;;;;12.18;2.60;;;3.40;99.90;;;1.68;100.00;100073.66;2569359;30;137429;-37
2022/01/05 09:02:54;;;;;;;14.80;3.05;;;3.40;99.90;;;1.79;100.00;100079.69;2567592;30;137521;-37
2022/01/05 09:05:23;;;;;;;12.25;2.45;;;3.50;99.90;;;1.82;100.00;100077.47;2566812;30;138244;-37
2022/01/05 09:07:50;;;;;;;14.13;3.50;;;3.50;99.90;;;1.86;100.00;100065.38;2568393;30;137142;-37
2022/01/05 09:10:18;;;;;;;8.40;3.13;;;3.60;99.90;;;1.92;100.00;100065.69;2567200;30;137438;-37
2022/01/05 09:12:46;;;;;;;12.95;3.10;;;3.60;99.90;;;1.96;100.00;100061.63;2568260;30;139110;-37
2022/01/05 09:15:13;;;;;;;9.05;2.78;;;3.70;99.90;;;2.00;100.00;100062.94;2568017;30;137461;-37
2022/01/05 09:17:42;;;;;;;15.88;3.42;;;3.70;99.90;;;2.03;99.47;100076.06;2568945;30;138640;-37
2022/01/05 09:20:10;;;;;;;13.10;3.53;;;3.80;99.90;;;2.05;99.57;100070.50;2567910;30;137406;-37
2022/01/05 09:22:38;;;;;;;10.95;3.42;;;3.80;99.90;;;2.03;100.00;100083.31;2567738;30;136829;-37
2022/01/05 09:25:09;;;;;;;;;;;3.80;99.90;;;2.01;100.00;100086.16;2568989;30;137400;-37
2022/01/05 09:27:39;;;;;;;8.35;3.03;;;3.80;99.90;;;2.06;100.00;100091.84;2564883;30;138335;-37
2022/01/05 09:30:12;;;;;;;9.35;3.75;;;3.80;99.90;;;2.06;100.00;100091.03;2566717;30;139747;-37
2022/01/05 09:32:40;;;;;;;13.07;3.38;;;3.80;99.90;;;2.06;99.56;100094.53;2565845;30;138336;-37
2022/01/05 09:35:12;;;;;;;15.32;4.13;;;3.80;99.90;;;2.04;99.08;100099.25;2566825;30;138722;-39
2022/01/05 09:37:50;;;;;;;9.25;3.30;;;3.80;99.90;;;2.07;100.00;100104.28;2567246;30;137245;-39
2022/01/05 09:43:07;;;;;;;12.02;3.70;;;3.80;99.90;;;2.14;99.01;100091.84;2568142;30;138367;-39
2022/01/05 09:45:42;;;;;;;10.00;3.20;;;3.90;99.90;;;2.15;99.76;100096.19;2568043;30;137356;-39
2022/01/05 09:48:27;;;;;;;14.13;3.83;;;3.90;99.90;;;2.18;100.00;100086.91;2566782;30;137312;-39
2022/01/05 09:51:10;;;;;;;10.27;3.30;;;3.90;99.90;;;2.20;99.27;100095.66;2566873;30;137004;-39
2022/01/05 09:53:40;;;;;;;8.77;3.50;;;3.90;99.90;;;2.37;99.17;100092.88;2569024;30;137123;-39
2022/01/05 09:56:31;;;;;;;10.73;3.45;;;4.00;99.90;;;2.49;99.85;100087.94;2567498;30;137357;-39
2022/01/05 09:59:03;;;;;;;11.05;3.78;;;4.10;99.90;;;2.61;99.72;100104.53;2565859;30;137372;-39
2022/01/05 10:01:35;;;;;;;13.55;3.65;;;4.20;99.90;;;2.66;98.39;100107.53;2568106;30;137347;-40
2022/01/05 10:04:04;;;;;;;18.52;4.50;;;4.30;99.90;;;2.71;99.03;100103.28;2568136;30;138316;-39
2022/01/05 10:06:36;;;;;;;12.57;4.13;;;4.40;99.90;;;2.70;97.44;100096.22;2567777;30;137010;-39
2022/01/05 10:09:05;;;;;;;11.82;3.13;;;4.40;99.90;;;2.73;97.37;100111.19;2567099;30;137433;-39
2022/01/05 10:11:34;;;;;;;13.05;3.47;;;4.50;99.90;;;2.78;97.99;100107.97;2567067;30;139266;-39
2022/01/05 10:14:02;;;;;;;12.02;3.50;;;4.50;99.90;;;2.77;96.89;100107.09;2569989;30;137005;-39
2022/01/05 10:16:30;;;;;;;13.20;3.55;;;4.50;99.90;;;2.77;97.08;100114.38;2567803;30;136828;-39
2022/01/05 10:18:59;;;;;;;15.80;4.38;;;4.50;99.90;;;2.76;98.64;100113.50;2567715;30;137730;-40
2022/01/05 10:21:39;;;;;;;10.73;3.35;;;4.50;99.90;;;2.66;97.74;100129.94;2567324;30;137198;-39
2022/01/05 10:24:06;;;;;;;15.35;4.05;;;4.40;99.90;;;2.69;98.24;100118.81;2568779;30;137979;-39
2022/01/05 10:26:39;;;;;;;12.32;4.05;;;4.40;99.90;;;2.64;98.34;100121.16;2568928;30;137010;-39
2022/01/05 10:29:23;;;;;;;12.82;3.40;;;4.40;99.90;;;2.58;98.37;100122.72;2568855;30;139018;-39
2022/01/05 10:31:56;;;;;;;10.48;3.30;;;4.40;99.90;;;2.59;99.40;100112.78;2568196;30;137035;-39
2022/01/05 10:34:32;;;;;;;9.98;3.35;;;4.30;99.90;;;2.56;99.90;100115.84;2567610;30;138413;-39
2022/01/05 10:37:06;;;;;;;9.55;3.45;;;4.30;99.90;;;2.54;98.90;100128.63;2568620;30;137008;-39